Terminal Aerodrome Forecast
Issued by NWS Omaha/Valley, NE

Home | Current Version | Previous Version | Text Only | Print | Product List | Glossary Off
Versions: 1 2 3 4 5 6 7 8 9 10 11 12 13 14 15 16 17 18

000
FTUS43 KOAX 250722 AAA
TAFOFK
TAF AMD
KOFK 250722Z 2507/2606 14012G18KT P6SM OVC100
     FM250800 15007KT P6SM OVC060
      TEMPO 2509/2513 4SM -TSRA OVC030CB
     FM251300 15008KT P6SM BKN020
     FM251800 19007KT P6SM BKN050=

USA.gov is the U.S. government's official web portal to all federal, state and local government web resources and services.